createdAt,value
2019-06-08T00:02:56.209Z,25.31
2019-06-08T00:07:59.679Z,25.30
2019-06-08T00:13:03.223Z,25.31
2019-06-08T00:18:06.731Z,25.27
2019-06-08T00:23:10.147Z,25.26
2019-06-08T00:28:14.159Z,25.26
2019-06-08T00:33:18.567Z,25.24
2019-06-08T00:38:23.044Z,25.21
2019-06-08T00:43:26.635Z,25.19
2019-06-08T00:48:30.096Z,25.15
2019-06-08T00:53:33.561Z,25.15
2019-06-08T00:58:37.034Z,25.16
2019-06-08T01:03:40.491Z,25.15
2019-06-08T01:08:43.958Z,25.12
2019-06-08T01:13:47.420Z,25.12
2019-06-08T01:18:52.311Z,25.12
2019-06-08T01:23:55.773Z,25.07
2019-06-08T01:28:59.234Z,25.10
2019-06-08T01:34:02.697Z,25.12
2019-06-08T01:39:07.611Z,25.10
2019-06-08T01:44:13.331Z,25.10
2019-06-08T01:49:16.806Z,25.06
2019-06-08T01:54:20.254Z,25.04
2019-06-08T01:59:23.712Z,25.04
2019-06-08T02:04:28.045Z,25.04
2019-06-08T02:09:32.751Z,25.01
2019-06-08T02:14:36.360Z,24.96
2019-06-08T02:19:39.820Z,24.99
2019-06-08T02:24:43.285Z,24.98
2019-06-08T02:29:46.749Z,24.98
2019-06-08T02:34:50.213Z,24.96
2019-06-08T02:39:53.673Z,24.94
2019-06-08T02:44:57.157Z,24.95
2019-06-08T02:50:00.621Z,24.93
2019-06-08T02:55:05.431Z,24.93
2019-06-08T03:00:13.442Z,24.87
2019-06-08T03:05:17.428Z,24.88
2019-06-08T03:10:21.018Z,24.86
2019-06-08T03:15:33.172Z,24.82
2019-06-08T03:20:37.726Z,24.83
2019-06-08T03:25:47.399Z,24.79
2019-06-08T03:30:53.872Z,24.76
2019-06-08T03:35:57.360Z,24.75
2019-06-08T03:40:56.878Z,24.74
2019-06-08T03:46:00.343Z,24.73
2019-06-08T03:51:03.807Z,24.70
2019-06-08T03:56:07.275Z,24.73
2019-06-08T04:01:10.736Z,24.71
2019-06-08T04:06:14.200Z,24.72
2019-06-08T04:11:17.666Z,24.74
2019-06-08T04:16:22.201Z,24.75
2019-06-08T04:21:25.662Z,24.80
2019-06-08T04:26:29.125Z,24.81
2019-06-08T04:31:32.589Z,24.81
2019-06-08T04:36:36.045Z,24.79
2019-06-08T04:41:40.708Z,24.77
2019-06-08T04:46:45.494Z,24.78
2019-06-08T04:51:49.890Z,24.77
2019-06-08T04:56:53.351Z,24.78
2019-06-08T05:01:56.816Z,24.77
2019-06-08T05:07:00.268Z,24.75
2019-06-08T05:12:03.729Z,24.77
2019-06-08T05:17:07.194Z,24.74
2019-06-08T05:22:10.648Z,24.76
2019-06-08T05:27:14.108Z,24.75
2019-06-08T05:32:17.569Z,24.75
2019-06-08T05:37:21.031Z,24.75
2019-06-08T05:42:24.491Z,24.75
2019-06-08T05:47:27.954Z,24.72
2019-06-08T05:52:31.425Z,24.74
2019-06-08T05:57:34.889Z,24.71
2019-06-08T06:02:38.391Z,24.69
2019-06-08T06:07:42.672Z,24.71
2019-06-08T06:12:46.938Z,24.68
2019-06-08T06:17:51.604Z,24.69
2019-06-08T06:22:58.444Z,24.68
2019-06-08T06:28:00.376Z,24.66
2019-06-08T06:33:03.836Z,24.64
2019-06-08T06:38:07.301Z,24.66
2019-06-08T06:43:10.767Z,24.65
2019-06-08T06:48:14.230Z,24.64
2019-06-08T06:53:17.704Z,24.64
2019-06-08T06:58:21.160Z,24.63
2019-06-08T07:03:24.623Z,24.64
2019-06-08T07:08:28.092Z,24.53
2019-06-08T07:13:33.069Z,24.41
2019-06-08T07:18:36.601Z,24.36
2019-06-08T07:23:40.069Z,24.34
2019-06-08T07:28:43.567Z,24.33
2019-06-08T07:33:48.380Z,24.31
2019-06-08T07:38:53.363Z,24.30
2019-06-08T07:43:56.853Z,24.33
2019-06-08T07:49:00.326Z,24.27
2019-06-08T07:54:03.782Z,24.28
2019-06-08T07:59:07.242Z,24.23
2019-06-08T08:04:10.705Z,24.26
2019-06-08T08:09:14.171Z,24.24
2019-06-08T08:14:17.632Z,24.19
2019-06-08T08:19:21.103Z,24.20
2019-06-08T08:24:24.572Z,24.24
2019-06-08T08:29:31.183Z,24.29
2019-06-08T08:34:33.228Z,24.20
2019-06-08T08:39:37.649Z,24.32
2019-06-08T08:44:41.339Z,24.46
2019-06-08T08:49:44.804Z,24.54
2019-06-08T08:54:48.267Z,24.61
2019-06-08T08:59:53.474Z,24.65
2019-06-08T09:05:00.047Z,24.71
2019-06-08T09:10:03.614Z,24.75
2019-06-08T09:15:08.634Z,24.75
2019-06-08T09:20:15.895Z,24.82
2019-06-08T09:25:18.366Z,24.83
2019-06-08T09:30:21.985Z,24.90
2019-06-08T09:35:27.877Z,24.90
2019-06-08T09:40:32.622Z,24.89
2019-06-08T09:45:38.060Z,24.87
2019-06-08T09:50:41.058Z,24.78
2019-06-08T09:55:44.522Z,24.78
2019-06-08T10:00:48.778Z,24.73
2019-06-08T10:05:52.420Z,24.72
2019-06-08T10:10:58.762Z,24.72
2019-06-08T10:16:03.694Z,24.69
2019-06-08T10:21:09.370Z,24.59
2019-06-08T10:26:12.111Z,24.56
2019-06-08T10:31:17.472Z,24.53
2019-06-08T10:36:20.757Z,24.56
2019-06-08T10:41:24.243Z,24.58
2019-06-08T10:46:27.721Z,24.66
2019-06-08T10:51:31.182Z,24.62
2019-06-08T10:56:34.633Z,24.63
2019-06-08T11:01:38.653Z,24.59
2019-06-08T11:06:42.210Z,24.58
2019-06-08T11:11:47.952Z,24.53
2019-06-08T11:16:50.886Z,24.62
2019-06-08T11:21:54.372Z,24.63
2019-06-08T11:26:59.704Z,24.57
2019-06-08T11:32:04.208Z,24.58
2019-06-08T11:37:11.872Z,24.74
2019-06-08T11:42:13.664Z,24.85
2019-06-08T11:47:18.169Z,24.95
2019-06-08T11:52:21.852Z,25.03
2019-06-08T11:57:25.565Z,25.09
2019-06-08T12:02:29.024Z,25.17
2019-06-08T12:07:32.491Z,25.22
2019-06-08T12:12:38.456Z,25.26
2019-06-08T12:17:41.152Z,25.32
2019-06-08T12:22:44.613Z,25.38
2019-06-08T12:27:48.831Z,25.43
2019-06-08T12:32:53.324Z,25.45
2019-06-08T12:37:58.072Z,25.50
2019-06-08T12:43:01.791Z,25.54
2019-06-08T12:48:05.252Z,25.57
2019-06-08T12:53:13.421Z,25.61
2019-06-08T12:58:14.455Z,25.64
2019-06-08T13:03:18.831Z,25.64
2019-06-08T13:08:22.361Z,25.66
2019-06-08T13:13:28.078Z,25.69
2019-06-08T13:18:31.021Z,25.70
2019-06-08T13:23:34.490Z,25.74
2019-06-08T13:28:38.504Z,25.78
2019-06-08T13:33:41.988Z,25.79
2019-06-08T13:38:45.455Z,25.80
2019-06-08T13:43:48.923Z,25.84
2019-06-08T13:48:52.385Z,25.89
2019-06-08T13:53:58.090Z,25.92
2019-06-08T13:59:01.042Z,25.92
2019-06-08T14:04:04.645Z,25.95
2019-06-08T14:09:08.399Z,25.94
2019-06-08T14:14:11.934Z,25.94
2019-06-08T14:19:16.559Z,25.94
2019-06-08T14:24:26.352Z,25.93
2019-06-08T14:29:26.027Z,25.84
2019-06-08T14:34:31.237Z,26.02
2019-06-08T14:39:34.905Z,26.02
2019-06-08T14:44:38.366Z,26.04
2019-06-08T14:49:45.761Z,26.03
2019-06-08T14:54:51.159Z,26.04
2019-06-08T14:59:59.064Z,26.04
2019-06-08T15:04:59.595Z,26.05
2019-06-08T15:10:03.312Z,26.05
2019-06-08T15:15:10.747Z,26.06
2019-06-08T15:20:13.056Z,26.05
2019-06-08T15:25:18.542Z,26.04
2019-06-08T15:30:23.069Z,26.03
2019-06-08T15:35:27.311Z,26.04
2019-06-08T15:40:31.866Z,26.04
2019-06-08T15:45:35.445Z,26.04
2019-06-08T15:50:38.904Z,26.04
2019-06-08T15:55:42.367Z,26.05
2019-06-08T16:00:46.196Z,26.06
2019-06-08T16:05:49.666Z,26.05
2019-06-08T16:10:53.135Z,26.06
2019-06-08T16:15:56.590Z,26.06
2019-06-08T16:21:00.050Z,26.06
2019-06-08T16:26:03.692Z,26.08
2019-06-08T16:31:07.158Z,26.07
2019-06-08T16:36:10.621Z,26.06
2019-06-08T16:41:14.081Z,26.08
2019-06-08T16:46:17.540Z,26.06
2019-06-08T16:51:21.015Z,26.06
2019-06-08T16:56:24.467Z,26.07
2019-06-08T17:01:28.392Z,26.07
2019-06-08T17:06:33.188Z,26.07
2019-06-08T17:11:37.131Z,26.07
2019-06-08T17:16:40.719Z,26.08
2019-06-08T17:21:44.208Z,26.09
2019-06-08T17:26:47.668Z,26.07
2019-06-08T17:31:51.133Z,26.06
2019-06-08T17:36:54.594Z,26.04
2019-06-08T17:41:58.057Z,26.01
2019-06-08T17:47:01.522Z,25.98
2019-06-08T17:52:04.988Z,25.97
2019-06-08T17:57:08.449Z,25.97
2019-06-08T18:02:15.377Z,25.95
2019-06-08T18:07:17.260Z,25.94
2019-06-08T18:12:20.736Z,25.91
2019-06-08T18:17:24.215Z,25.92
2019-06-08T18:22:27.702Z,25.90
2019-06-08T18:27:31.644Z,25.87
2019-06-08T18:32:35.102Z,25.86
2019-06-08T18:37:40.897Z,25.84
2019-06-08T18:42:44.611Z,25.83
2019-06-08T18:47:49.088Z,25.81
2019-06-08T18:52:52.622Z,25.81
2019-06-08T18:57:57.131Z,25.81
2019-06-08T19:03:00.824Z,25.82
2019-06-08T19:08:10.000Z,25.81
2019-06-08T19:13:13.483Z,25.82
2019-06-08T19:18:17.861Z,25.85
2019-06-08T19:23:21.610Z,25.83
2019-06-08T19:28:35.867Z,25.79
2019-06-08T19:33:33.534Z,25.79
2019-06-08T19:38:38.468Z,25.80
2019-06-08T19:43:43.600Z,25.72
2019-06-08T19:48:53.213Z,25.68
2019-06-08T19:53:54.927Z,25.65
2019-06-08T19:59:03.947Z,25.63
2019-06-08T20:04:02.936Z,25.59
2019-06-08T20:09:08.537Z,25.54
2019-06-08T20:14:11.979Z,25.52
2019-06-08T20:19:17.601Z,25.59
2019-06-08T20:24:20.625Z,25.60
2019-06-08T20:29:24.086Z,25.54
2019-06-08T20:34:27.555Z,25.44
2019-06-08T20:39:31.017Z,25.45
2019-06-08T20:44:34.543Z,25.41
2019-06-08T20:49:38.007Z,25.38
2019-06-08T20:54:42.688Z,25.35
2019-06-08T20:59:48.130Z,25.32
2019-06-08T21:04:54.391Z,25.30
2019-06-08T21:09:58.146Z,25.35
2019-06-08T21:15:01.718Z,25.39
2019-06-08T21:20:08.487Z,25.38
2019-06-08T21:25:11.930Z,25.36
2019-06-08T21:30:21.584Z,25.32
2019-06-08T21:35:20.706Z,25.31
2019-06-08T21:40:24.165Z,25.30
2019-06-08T21:45:27.752Z,25.26
2019-06-08T21:50:31.166Z,25.24
2019-06-08T21:55:34.633Z,25.20
2019-06-08T22:00:42.722Z,25.17
2019-06-08T22:05:43.458Z,25.23
2019-06-08T22:10:48.119Z,25.22
2019-06-08T22:15:52.903Z,25.20
2019-06-08T22:20:59.416Z,25.17
2019-06-08T22:26:03.648Z,25.08
2019-06-08T22:31:08.007Z,25.01
2019-06-08T22:36:12.726Z,24.95
2019-06-08T22:41:17.349Z,24.91
2019-06-08T22:46:20.973Z,24.85
2019-06-08T22:51:24.437Z,24.81
2019-06-08T22:56:27.903Z,24.76
2019-06-08T23:01:31.359Z,24.70
2019-06-08T23:06:34.822Z,24.66
2019-06-08T23:11:38.279Z,24.65
2019-06-08T23:16:41.739Z,24.58
2019-06-08T23:21:47.388Z,24.52
2019-06-08T23:26:50.391Z,24.45
2019-06-08T23:31:53.924Z,24.40
2019-06-08T23:37:00.896Z,24.37
2019-06-08T23:42:03.649Z,24.34
2019-06-08T23:47:08.138Z,24.32
2019-06-08T23:52:11.874Z,24.27
2019-06-08T23:57:17.883Z,24.25
